createdAt,value
2018-09-29T00:00:45.336Z,4.00
2018-09-29T00:03:12.676Z,3.77
2018-09-29T00:05:39.879Z,3.37
2018-09-29T00:08:07.229Z,3.47
2018-09-29T00:10:34.556Z,3.13
2018-09-29T00:13:01.820Z,3.80
2018-09-29T00:15:29.104Z,3.10
2018-09-29T00:17:56.388Z,3.50
2018-09-29T00:20:23.672Z,3.70
2018-09-29T00:22:50.951Z,3.83
2018-09-29T00:25:18.220Z,3.90
2018-09-29T00:27:45.499Z,3.57
2018-09-29T00:30:13.584Z,3.27
2018-09-29T00:32:40.880Z,3.67
2018-09-29T00:35:08.194Z,3.87
2018-09-29T00:37:35.471Z,3.43
2018-09-29T00:40:02.756Z,3.63
2018-09-29T00:42:30.040Z,3.30
2018-09-29T00:44:57.304Z,3.07
2018-09-29T00:47:24.611Z,3.47
2018-09-29T00:49:51.884Z,3.43
2018-09-29T00:52:19.168Z,3.60
2018-09-29T00:54:46.444Z,3.40
2018-09-29T00:57:13.724Z,3.70
2018-09-29T00:59:40.973Z,3.80
2018-09-29T01:02:08.305Z,4.17
2018-09-29T01:04:35.583Z,3.43
2018-09-29T01:07:02.863Z,3.40
2018-09-29T01:09:30.131Z,3.80
2018-09-29T01:11:57.439Z,3.87
2018-09-29T01:14:24.711Z,3.60
2018-09-29T01:16:51.983Z,4.27
2018-09-29T01:19:19.255Z,3.90
2018-09-29T01:21:46.524Z,3.67
2018-09-29T01:24:13.791Z,3.90
2018-09-29T01:26:41.067Z,3.90
2018-09-29T01:29:08.343Z,3.53
2018-09-29T01:31:35.620Z,3.80
2018-09-29T01:34:02.903Z,4.10
2018-09-29T01:36:30.208Z,3.90
2018-09-29T01:38:57.519Z,4.07
2018-09-29T01:41:24.803Z,4.27
2018-09-29T01:43:52.072Z,4.20
2018-09-29T01:46:19.376Z,4.03
2018-09-29T01:48:46.682Z,3.70
2018-09-29T01:51:13.952Z,3.70
2018-09-29T01:53:41.241Z,3.93
2018-09-29T01:56:08.509Z,3.93
2018-09-29T01:58:35.756Z,4.27
2018-09-29T02:01:03.034Z,3.77
2018-09-29T02:03:30.311Z,3.93
2018-09-29T02:05:57.572Z,3.97
2018-09-29T02:08:24.835Z,3.93
2018-09-29T02:10:52.115Z,3.73
2018-09-29T02:13:19.395Z,4.07
2018-09-29T02:15:46.664Z,3.70
2018-09-29T02:18:13.931Z,3.80
2018-09-29T02:20:41.204Z,3.90
2018-09-29T02:23:08.455Z,3.57
2018-09-29T02:25:35.712Z,3.63
2018-09-29T02:28:02.987Z,3.83
2018-09-29T02:30:30.248Z,3.90
2018-09-29T02:32:57.499Z,3.47
2018-09-29T02:35:24.762Z,4.07
2018-09-29T02:37:52.034Z,4.27
2018-09-29T02:40:19.321Z,3.80
2018-09-29T02:42:46.592Z,4.00
2018-09-29T02:45:13.864Z,4.57
2018-09-29T02:47:41.153Z,4.03
2018-09-29T02:50:08.476Z,3.83
2018-09-29T02:52:35.772Z,4.20
2018-09-29T02:55:03.120Z,3.77
2018-09-29T02:57:30.493Z,3.90
2018-09-29T02:59:57.749Z,3.93
2018-09-29T03:02:25.107Z,4.30
2018-09-29T03:04:52.683Z,3.80
2018-09-29T03:07:19.970Z,4.07
2018-09-29T03:09:47.241Z,4.37
2018-09-29T03:12:14.507Z,4.37
2018-09-29T03:14:41.768Z,4.03
2018-09-29T03:17:09.035Z,4.33
2018-09-29T03:19:36.335Z,4.27
2018-09-29T03:22:03.665Z,4.23
2018-09-29T03:24:30.931Z,4.27
2018-09-29T03:26:58.188Z,3.80
2018-09-29T03:29:25.475Z,4.03
2018-09-29T03:31:52.837Z,3.73
2018-09-29T03:34:20.024Z,4.50
2018-09-29T03:36:47.289Z,3.80
2018-09-29T03:39:14.548Z,4.10
2018-09-29T03:41:41.840Z,4.30
2018-09-29T03:44:09.748Z,3.87
2018-09-29T03:46:37.080Z,4.03
2018-09-29T03:49:04.368Z,3.60
2018-09-29T03:51:31.652Z,4.20
2018-09-29T03:53:59.028Z,3.93
2018-09-29T03:56:26.345Z,4.30
2018-09-29T03:58:53.649Z,4.40
2018-09-29T04:01:20.929Z,4.57
2018-09-29T04:03:48.200Z,4.57
2018-09-29T04:06:15.496Z,4.63
2018-09-29T04:08:43.093Z,4.27
2018-09-29T04:11:10.368Z,4.00
2018-09-29T04:13:37.656Z,3.80
2018-09-29T04:16:04.960Z,4.33
2018-09-29T04:18:32.217Z,4.60
2018-09-29T04:20:59.488Z,3.93
2018-09-29T04:23:26.763Z,4.28
2018-09-29T04:25:54.052Z,4.70
2018-09-29T04:28:21.339Z,4.40
2018-09-29T04:30:48.596Z,4.47
2018-09-29T04:33:15.856Z,4.50
2018-09-29T04:35:43.116Z,4.20
2018-09-29T04:38:10.431Z,4.37
2018-09-29T04:40:37.708Z,4.85
2018-09-29T04:43:05.368Z,4.00
2018-09-29T04:45:32.627Z,4.08
2018-09-29T04:47:59.908Z,4.60
2018-09-29T04:50:27.184Z,4.70
2018-09-29T04:52:54.459Z,4.40
2018-09-29T04:55:21.725Z,3.98
2018-09-29T04:57:49.000Z,4.40
2018-09-29T05:00:16.272Z,4.20
2018-09-29T05:02:43.541Z,4.20
2018-09-29T05:05:10.872Z,4.85
2018-09-29T05:07:38.147Z,4.08
2018-09-29T05:10:05.655Z,4.70
2018-09-29T05:12:32.944Z,3.80
2018-09-29T05:15:00.276Z,4.58
2018-09-29T05:17:27.548Z,4.58
2018-09-29T05:19:54.908Z,4.37
2018-09-29T05:22:22.181Z,4.33
2018-09-29T05:24:49.516Z,4.45
2018-09-29T05:27:16.789Z,4.80
2018-09-29T05:29:44.099Z,4.67
2018-09-29T05:32:11.408Z,4.00
2018-09-29T05:34:38.668Z,4.75
2018-09-29T05:37:06.004Z,4.67
2018-09-29T05:39:33.271Z,4.58
2018-09-29T05:42:00.568Z,4.40
2018-09-29T05:44:27.839Z,4.15
2018-09-29T05:46:55.117Z,4.42
2018-09-29T05:49:22.432Z,4.28
2018-09-29T05:51:49.704Z,4.20
2018-09-29T05:54:16.980Z,4.12
2018-09-29T05:56:44.255Z,4.72
2018-09-29T05:59:11.528Z,4.20
2018-09-29T06:01:38.816Z,4.22
2018-09-29T06:04:06.528Z,4.50
2018-09-29T06:06:33.787Z,4.00
2018-09-29T06:09:01.828Z,4.80
2018-09-29T06:11:29.225Z,4.10
2018-09-29T06:13:56.784Z,5.00
2018-09-29T06:16:24.059Z,4.33
2018-09-29T06:18:51.359Z,5.10
2018-09-29T06:21:18.626Z,4.42
2018-09-29T06:23:45.902Z,4.63
2018-09-29T06:26:13.188Z,5.00
2018-09-29T06:28:40.460Z,3.98
2018-09-29T06:31:07.825Z,5.25
2018-09-29T06:33:35.116Z,4.42
2018-09-29T06:36:02.404Z,4.55
2018-09-29T06:38:29.669Z,4.03
2018-09-29T06:40:57.000Z,4.80
2018-09-29T06:43:24.224Z,5.08
2018-09-29T06:45:51.632Z,4.53
2018-09-29T06:48:18.976Z,4.60
2018-09-29T06:50:46.300Z,4.73
2018-09-29T06:53:13.938Z,4.70
2018-09-29T06:55:41.213Z,5.07
2018-09-29T06:58:08.517Z,5.20
2018-09-29T07:00:35.809Z,5.40
2018-09-29T07:03:03.138Z,5.30
2018-09-29T07:05:30.348Z,5.90
2018-09-29T07:07:57.628Z,5.67
2018-09-29T07:10:24.891Z,5.40
2018-09-29T07:12:52.201Z,5.67
2018-09-29T07:15:19.473Z,6.40
2018-09-29T07:17:46.755Z,6.70
2018-09-29T07:20:14.025Z,5.57
2018-09-29T07:22:41.300Z,5.80
2018-09-29T07:25:08.572Z,7.00
2018-09-29T07:27:35.852Z,5.60
2018-09-29T07:30:04.661Z,5.70
2018-09-29T07:32:32.019Z,6.53
2018-09-29T07:34:59.296Z,6.20
2018-09-29T07:37:26.585Z,5.80
2018-09-29T07:39:53.872Z,6.17
2018-09-29T07:42:21.152Z,6.43
2018-09-29T07:44:48.472Z,5.77
2018-09-29T07:47:15.756Z,5.30
2018-09-29T07:49:43.056Z,5.70
2018-09-29T07:52:10.335Z,5.90
2018-09-29T07:54:37.645Z,5.07
2018-09-29T07:57:04.933Z,6.10
2018-09-29T07:59:32.188Z,5.30
2018-09-29T08:01:59.472Z,4.77
2018-09-29T08:04:26.757Z,5.53
2018-09-29T08:06:54.024Z,5.40
2018-09-29T08:09:21.279Z,5.83
2018-09-29T08:11:48.572Z,5.83
2018-09-29T08:14:15.853Z,5.20
2018-09-29T08:16:43.116Z,5.50
2018-09-29T08:19:10.384Z,5.20
2018-09-29T08:21:37.668Z,6.03
2018-09-29T08:24:04.946Z,4.30
2018-09-29T08:26:32.229Z,5.40
2018-09-29T08:28:59.488Z,4.90
2018-09-29T08:31:26.765Z,5.07
2018-09-29T08:33:54.044Z,5.07
2018-09-29T08:36:21.305Z,5.00
2018-09-29T08:38:48.588Z,5.13
2018-09-29T08:41:15.915Z,5.13
2018-09-29T08:43:43.197Z,5.17
2018-09-29T08:46:10.475Z,5.17
2018-09-29T08:48:37.748Z,5.17
2018-09-29T08:51:05.056Z,4.47
2018-09-29T08:53:32.367Z,5.17
2018-09-29T08:55:59.608Z,4.60
2018-09-29T08:58:26.889Z,4.80
2018-09-29T09:00:54.220Z,4.53
2018-09-29T09:03:21.484Z,4.80
2018-09-29T09:05:48.760Z,4.93
2018-09-29T09:08:16.064Z,4.73
2018-09-29T09:10:43.327Z,4.70
2018-09-29T09:13:10.605Z,4.43
2018-09-29T09:15:37.880Z,4.20
2018-09-29T09:18:05.151Z,4.03
2018-09-29T09:20:32.416Z,3.93
2018-09-29T09:22:59.694Z,3.77
2018-09-29T09:25:26.959Z,3.13
2018-09-29T09:27:54.244Z,4.20
2018-09-29T09:30:21.603Z,3.60
2018-09-29T09:32:48.831Z,4.20
2018-09-29T09:35:16.105Z,4.07
2018-09-29T09:37:43.368Z,3.47
2018-09-29T09:40:10.632Z,4.03
2018-09-29T09:42:37.898Z,3.57
2018-09-29T09:45:05.714Z,3.60
2018-09-29T09:47:32.992Z,3.00
2018-09-29T09:50:00.272Z,2.87
2018-09-29T09:52:27.547Z,3.40
2018-09-29T09:54:54.808Z,3.37
2018-09-29T09:57:22.076Z,3.33
2018-09-29T09:59:49.336Z,2.70
2018-09-29T10:02:22.416Z,2.73
2018-09-29T10:04:49.680Z,2.73
2018-09-29T10:07:16.945Z,2.53
2018-09-29T10:09:44.201Z,2.70
2018-09-29T10:12:11.484Z,2.80
2018-09-29T10:14:38.748Z,3.17
2018-09-29T10:17:06.013Z,3.33
2018-09-29T10:19:33.301Z,2.80
2018-09-29T10:22:00.584Z,2.63
2018-09-29T10:24:27.900Z,3.57
2018-09-29T10:26:55.168Z,3.50
2018-09-29T10:29:22.446Z,3.13
2018-09-29T10:31:49.744Z,2.80
2018-09-29T10:34:17.049Z,2.93
2018-09-29T10:36:44.323Z,3.27
2018-09-29T10:39:12.453Z,2.70
2018-09-29T10:41:40.187Z,3.10
2018-09-29T10:44:07.912Z,2.40
2018-09-29T10:46:35.142Z,2.77
2018-09-29T10:49:02.867Z,2.27
2018-09-29T10:51:30.156Z,3.00
2018-09-29T10:53:57.413Z,2.50
2018-09-29T10:56:24.680Z,2.53
2018-09-29T10:58:51.960Z,2.30
2018-09-29T11:01:19.224Z,2.30
2018-09-29T11:03:46.500Z,2.80
2018-09-29T11:06:13.777Z,2.40
2018-09-29T11:08:41.040Z,2.27
2018-09-29T11:11:08.319Z,2.37
2018-09-29T11:13:35.587Z,2.90
2018-09-29T11:16:02.907Z,2.50
2018-09-29T11:18:30.174Z,2.80
2018-09-29T11:20:57.557Z,2.50
2018-09-29T11:23:24.739Z,2.40
2018-09-29T11:25:52.055Z,2.90
2018-09-29T11:28:19.376Z,2.97
2018-09-29T11:30:46.616Z,2.33
2018-09-29T11:33:13.897Z,2.40
2018-09-29T11:35:41.296Z,2.87
2018-09-29T11:38:08.660Z,2.60
2018-09-29T11:40:36.050Z,2.70
2018-09-29T11:43:03.229Z,2.20
2018-09-29T11:45:30.572Z,2.20
2018-09-29T11:47:57.924Z,2.80
2018-09-29T11:50:25.187Z,2.27
2018-09-29T11:52:52.472Z,2.50
2018-09-29T11:55:19.760Z,2.60
2018-09-29T11:57:47.046Z,2.70
2018-09-29T12:00:14.368Z,2.53
2018-09-29T12:02:41.656Z,2.97
2018-09-29T12:05:08.915Z,2.70
2018-09-29T12:07:36.246Z,2.80
2018-09-29T12:10:03.503Z,2.77
2018-09-29T12:12:30.804Z,2.70
2018-09-29T12:14:58.073Z,2.57
2018-09-29T12:17:25.340Z,2.80
2018-09-29T12:19:52.589Z,3.07
2018-09-29T12:22:19.931Z,3.07
2018-09-29T12:24:47.124Z,2.60
2018-09-29T12:27:14.388Z,2.63
2018-09-29T12:29:41.711Z,2.50
2018-09-29T12:32:08.924Z,2.10
2018-09-29T12:34:36.180Z,2.10
2018-09-29T12:37:03.493Z,2.07
2018-09-29T12:39:30.749Z,2.67
2018-09-29T12:41:58.020Z,2.10
2018-09-29T12:44:25.299Z,2.40
2018-09-29T12:46:52.569Z,2.10
2018-09-29T12:49:19.836Z,2.43
2018-09-29T12:51:47.112Z,1.97
2018-09-29T12:54:14.368Z,1.90
2018-09-29T12:56:41.615Z,2.00
2018-09-29T12:59:08.895Z,2.17
2018-09-29T13:01:36.163Z,2.27
2018-09-29T13:04:03.504Z,2.00
2018-09-29T13:06:30.774Z,2.03
2018-09-29T13:08:58.080Z,2.67
2018-09-29T13:11:25.362Z,2.30
2018-09-29T13:13:52.631Z,1.90
2018-09-29T13:16:19.890Z,2.00
2018-09-29T13:18:47.191Z,2.00
2018-09-29T13:21:14.456Z,1.97
2018-09-29T13:23:41.730Z,1.83
2018-09-29T13:26:08.996Z,1.80
2018-09-29T13:28:36.284Z,1.60
2018-09-29T13:31:03.561Z,1.90
2018-09-29T13:33:30.839Z,2.07
2018-09-29T13:35:58.108Z,1.70
2018-09-29T13:38:25.372Z,1.70
2018-09-29T13:40:52.647Z,1.90
2018-09-29T13:43:19.926Z,2.30
2018-09-29T13:45:47.293Z,2.00
2018-09-29T13:48:14.507Z,2.43
2018-09-29T13:50:41.787Z,2.20
2018-09-29T13:53:09.076Z,2.13
2018-09-29T13:55:36.344Z,1.80
2018-09-29T13:58:03.617Z,2.07
2018-09-29T14:00:30.891Z,1.90
2018-09-29T14:02:58.500Z,2.10
2018-09-29T14:05:25.780Z,1.70
2018-09-29T14:07:53.039Z,1.97
2018-09-29T14:10:20.362Z,2.40
2018-09-29T14:12:47.659Z,2.07
2018-09-29T14:15:14.924Z,1.90
2018-09-29T14:17:42.180Z,2.30
2018-09-29T14:20:09.440Z,2.00
2018-09-29T14:22:36.709Z,2.23
2018-09-29T14:25:04.327Z,2.07
2018-09-29T14:27:31.595Z,2.50
2018-09-29T14:29:58.883Z,2.40
2018-09-29T14:32:26.157Z,2.00
2018-09-29T14:34:53.428Z,2.00
2018-09-29T14:37:20.740Z,2.40
2018-09-29T14:39:48.055Z,2.23
2018-09-29T14:42:15.340Z,2.10
2018-09-29T14:44:42.592Z,2.40
2018-09-29T14:47:09.865Z,2.50
2018-09-29T14:49:37.167Z,2.60
2018-09-29T14:52:04.440Z,2.40
2018-09-29T14:54:31.712Z,2.40
2018-09-29T14:56:59.024Z,2.20
2018-09-29T14:59:26.290Z,2.47
2018-09-29T15:01:53.560Z,2.30
2018-09-29T15:04:20.866Z,2.20
2018-09-29T15:06:48.153Z,2.17
2018-09-29T15:09:15.432Z,2.10
2018-09-29T15:11:42.728Z,2.77
2018-09-29T15:14:10.508Z,2.67
2018-09-29T15:16:37.773Z,2.10
2018-09-29T15:19:05.179Z,2.10
2018-09-29T15:21:32.524Z,2.13
2018-09-29T15:23:59.828Z,2.10
2018-09-29T15:26:27.532Z,2.20
2018-09-29T15:28:55.641Z,2.30
2018-09-29T15:31:22.989Z,2.40
2018-09-29T15:33:50.294Z,2.57
2018-09-29T15:36:17.572Z,2.60
2018-09-29T15:38:44.864Z,2.27
2018-09-29T15:41:12.224Z,2.13
2018-09-29T15:43:39.493Z,2.37
2018-09-29T15:46:07.039Z,2.17
2018-09-29T15:48:34.339Z,2.50
2018-09-29T15:51:01.614Z,2.53
2018-09-29T15:53:28.880Z,2.20
2018-09-29T15:55:56.197Z,2.00
2018-09-29T15:58:23.508Z,2.10
2018-09-29T16:00:50.831Z,2.17
2018-09-29T16:03:18.152Z,2.30
2018-09-29T16:05:45.428Z,1.83
2018-09-29T16:08:12.700Z,2.20
2018-09-29T16:10:39.972Z,2.63
2018-09-29T16:13:07.328Z,1.80
2018-09-29T16:15:34.605Z,2.10
2018-09-29T16:18:01.890Z,1.90
2018-09-29T16:20:29.170Z,2.37
2018-09-29T16:22:56.467Z,2.07
2018-09-29T16:25:23.754Z,2.30
2018-09-29T16:27:51.076Z,1.90
2018-09-29T16:30:20.301Z,2.37
2018-09-29T16:32:47.568Z,1.90
2018-09-29T16:35:14.826Z,1.93
2018-09-29T16:37:42.099Z,1.90
2018-09-29T16:40:09.388Z,1.93
2018-09-29T16:42:36.724Z,2.07
2018-09-29T16:45:04.095Z,2.07
2018-09-29T16:47:31.390Z,2.17
2018-09-29T16:49:58.739Z,2.03
2018-09-29T16:52:26.024Z,2.03
2018-09-29T16:54:53.292Z,2.00
2018-09-29T16:57:20.626Z,2.00
2018-09-29T16:59:47.835Z,2.20
2018-09-29T17:02:15.117Z,2.30
2018-09-29T17:04:42.525Z,2.70
2018-09-29T17:07:09.695Z,2.63
2018-09-29T17:09:36.966Z,2.40
2018-09-29T17:12:05.024Z,2.50
2018-09-29T17:14:32.353Z,3.07
2018-09-29T17:16:59.632Z,2.87
2018-09-29T17:19:26.900Z,2.97
2018-09-29T17:21:54.425Z,2.60
2018-09-29T17:24:21.681Z,3.10
2018-09-29T17:26:48.958Z,2.73
2018-09-29T17:29:16.385Z,2.80
2018-09-29T17:31:43.719Z,3.40
2018-09-29T17:34:10.948Z,3.37
2018-09-29T17:36:38.211Z,4.50
2018-09-29T17:39:07.994Z,4.23
2018-09-29T17:41:35.288Z,4.47
2018-09-29T17:44:02.558Z,4.53
2018-09-29T17:46:29.817Z,4.47
2018-09-29T17:48:57.097Z,4.53
2018-09-29T17:51:24.405Z,4.93
2018-09-29T17:53:51.639Z,4.77
2018-09-29T17:56:18.923Z,4.67
2018-09-29T17:58:46.195Z,4.50
2018-09-29T18:01:13.486Z,4.53
2018-09-29T18:03:40.748Z,4.50
2018-09-29T18:06:08.013Z,4.53
2018-09-29T18:08:35.376Z,4.90
2018-09-29T18:11:02.632Z,4.07
2018-09-29T18:13:29.972Z,4.13
2018-09-29T18:15:57.200Z,4.20
2018-09-29T18:18:24.487Z,3.87
2018-09-29T18:20:51.751Z,3.43
2018-09-29T18:23:19.035Z,3.87
2018-09-29T18:25:46.304Z,3.30
2018-09-29T18:28:13.951Z,3.30
2018-09-29T18:30:41.158Z,3.97
2018-09-29T18:33:08.431Z,3.83
2018-09-29T18:35:35.778Z,3.60
2018-09-29T18:38:03.084Z,3.90
2018-09-29T18:40:30.360Z,4.30
2018-09-29T18:42:57.624Z,4.00
2018-09-29T18:45:24.896Z,4.20
2018-09-29T18:47:52.171Z,4.00
2018-09-29T18:50:19.433Z,3.87
2018-09-29T18:52:46.688Z,4.23
2018-09-29T18:55:14.007Z,5.00
2018-09-29T18:57:41.364Z,4.67
2018-09-29T19:00:08.700Z,4.70
2018-09-29T19:02:35.965Z,3.93
2018-09-29T19:05:03.301Z,3.73
2018-09-29T19:07:30.686Z,4.07
2018-09-29T19:09:57.952Z,3.70
2018-09-29T19:12:25.216Z,3.67
2018-09-29T19:14:52.491Z,3.73
2018-09-29T19:17:19.764Z,3.57
2018-09-29T19:19:47.060Z,3.90
2018-09-29T19:22:14.338Z,3.57
2018-09-29T19:24:41.595Z,3.70
2018-09-29T19:27:08.913Z,3.47
2018-09-29T19:29:36.236Z,3.20
2018-09-29T19:32:03.516Z,3.37
2018-09-29T19:34:30.803Z,3.30
2018-09-29T19:36:58.060Z,3.03
2018-09-29T19:39:25.317Z,3.77
2018-09-29T19:41:52.599Z,3.07
2018-09-29T19:44:19.848Z,3.27
2018-09-29T19:46:47.117Z,3.20
2018-09-29T19:49:14.390Z,3.43
2018-09-29T19:51:41.660Z,3.67
2018-09-29T19:54:09.034Z,3.83
2018-09-29T19:56:36.299Z,4.60
2018-09-29T19:59:03.616Z,4.03
2018-09-29T20:01:30.900Z,4.03
2018-09-29T20:03:58.180Z,4.83
2018-09-29T20:06:25.580Z,4.50
2018-09-29T20:08:52.862Z,5.00
2018-09-29T20:11:20.140Z,4.67
2018-09-29T20:13:47.400Z,4.77
2018-09-29T20:16:14.677Z,4.87
2018-09-29T20:18:41.964Z,6.07
2018-09-29T20:21:09.231Z,8.07
2018-09-29T20:23:36.500Z,7.83
2018-09-29T20:26:03.771Z,8.13
2018-09-29T20:28:31.052Z,6.73
2018-09-29T20:30:58.320Z,6.80
2018-09-29T20:33:25.608Z,5.73
2018-09-29T20:35:52.870Z,6.23
2018-09-29T20:38:20.136Z,5.53
2018-09-29T20:40:47.388Z,6.67
2018-09-29T20:43:14.657Z,5.90
2018-09-29T20:45:41.907Z,7.10
2018-09-29T20:48:09.177Z,10.87
2018-09-29T20:50:36.448Z,11.57
2018-09-29T20:53:03.716Z,8.87
2018-09-29T20:55:30.976Z,6.87
2018-09-29T20:57:58.244Z,5.70
2018-09-29T21:00:25.585Z,5.47
2018-09-29T21:02:53.240Z,5.37
2018-09-29T21:05:20.539Z,5.77
2018-09-29T21:07:47.796Z,6.40
2018-09-29T21:10:15.060Z,5.83
2018-09-29T21:12:42.351Z,5.87
2018-09-29T21:15:09.609Z,6.37
2018-09-29T21:17:36.871Z,5.43
2018-09-29T21:20:04.709Z,6.00
2018-09-29T21:22:31.972Z,5.77
2018-09-29T21:24:59.236Z,5.73
2018-09-29T21:27:26.500Z,5.67
2018-09-29T21:29:53.756Z,6.10
2018-09-29T21:32:21.011Z,6.30
2018-09-29T21:34:48.289Z,5.90
2018-09-29T21:37:15.544Z,6.00
2018-09-29T21:39:42.838Z,6.30
2018-09-29T21:42:10.165Z,5.90
2018-09-29T21:44:37.373Z,7.13
2018-09-29T21:47:04.651Z,6.33
2018-09-29T21:49:31.927Z,6.67
2018-09-29T21:51:59.191Z,6.53
2018-09-29T21:54:26.444Z,6.20
2018-09-29T21:56:53.724Z,6.97
2018-09-29T21:59:21.051Z,6.53
2018-09-29T22:01:48.340Z,7.07
2018-09-29T22:04:15.598Z,6.90
2018-09-29T22:06:42.864Z,6.87
2018-09-29T22:09:10.171Z,7.97
2018-09-29T22:11:37.446Z,7.60
2018-09-29T22:14:04.755Z,6.70
2018-09-29T22:16:32.032Z,6.50
2018-09-29T22:18:59.312Z,6.77
2018-09-29T22:21:26.576Z,6.70
2018-09-29T22:23:53.838Z,7.70
2018-09-29T22:26:21.139Z,7.20
2018-09-29T22:28:48.387Z,7.03
2018-09-29T22:31:15.640Z,6.90
2018-09-29T22:33:42.912Z,6.53
2018-09-29T22:36:10.185Z,7.33
2018-09-29T22:38:37.463Z,6.67
2018-09-29T22:41:04.780Z,6.43
2018-09-29T22:43:32.027Z,6.90
2018-09-29T22:45:59.288Z,7.50
2018-09-29T22:48:26.538Z,7.53
2018-09-29T22:50:53.808Z,8.23
2018-09-29T22:53:21.072Z,8.33
2018-09-29T22:55:48.345Z,7.90
2018-09-29T22:58:15.605Z,8.97
2018-09-29T23:00:42.872Z,8.77
2018-09-29T23:03:10.120Z,8.60
2018-09-29T23:05:37.376Z,8.60
2018-09-29T23:08:05.052Z,9.53
2018-09-29T23:10:32.348Z,8.70
2018-09-29T23:12:59.600Z,8.43
2018-09-29T23:15:26.876Z,9.20
2018-09-29T23:17:54.235Z,8.53
2018-09-29T23:20:21.505Z,8.60
2018-09-29T23:22:48.756Z,7.87
2018-09-29T23:25:16.084Z,8.40
2018-09-29T23:27:43.344Z,9.03
2018-09-29T23:30:11.967Z,8.57
2018-09-29T23:32:39.227Z,7.97
2018-09-29T23:35:06.575Z,9.47
2018-09-29T23:37:33.837Z,7.90
2018-09-29T23:40:01.487Z,8.60
2018-09-29T23:42:28.764Z,9.23
2018-09-29T23:44:56.028Z,9.10
2018-09-29T23:47:23.303Z,9.37
2018-09-29T23:49:50.608Z,8.90
2018-09-29T23:52:17.873Z,9.37
2018-09-29T23:54:45.268Z,8.90
2018-09-29T23:57:12.547Z,9.03
2018-09-29T23:59:39.810Z,8.47
